Tropical Cyclones
[Index]
Main Index Home Page Stock Weather Photos Extreme Storms Discussion Storm News and Storm Chasing Reports Tropical Cyclones / Hurricanes / Typhoons Weather Data and Links Wild Fires / Bushfires Weather Observation Techniques Weather Picture Catalogue Tornado Pictures and Reports Stock Video Footage and DVDs for sale
Season 2007-2008 Tropical Cyclone KAMBA Track Map
Season 2007-2008 Summaries: [BoM-AU] [JTWC-AU] [JTWC-SIO] [JTWC-SPAC] [JTWC-SH]
<<- Previous TC | JTWC 2007-2008 Season | Next TC ->>

click for intensity scale information  Lat/long Grid: Show Hide

 Date Labels: Show Hide

Joint Typhoon Warning Centre Cyclone Data

Name: KAMBA

06 Mar 2008 00:00 UTC to 12 Mar 2008 06:00 UTC

    date/time    lat    long     hPa   cat  kts
2008-03-06 00   12.6    91.7    1010         15          
2008-03-06 06   12.6    91.0    1007         20          
2008-03-06 12   12.5    90.3    1005         25          
2008-03-06 18   12.4    89.6    1004         25          
2008-03-07 00   12.2    88.8    1000         30          
2008-03-07 06   12.1    88.2    1000         30          
2008-03-07 12   12.0    88.0     996    1    40          
2008-03-07 18   12.1    87.7     989    1    45          
2008-03-08 00   12.3    87.3     985    1    50          
2008-03-08 00   12.3    87.3     985    1    50          
2008-03-08 06   12.5    86.9     982    2    55          
2008-03-08 06   12.5    86.9     982    2    55          
2008-03-08 12   12.8    86.3     982    2    55          
2008-03-08 12   12.8    86.3     982    2    55          
2008-03-08 18   13.2    85.5     982    2    55          
2008-03-08 18   13.2    85.5     982    2    55          
2008-03-09 00   13.7    84.4     978    2    60          
2008-03-09 00   13.7    84.4     978    2    60          
2008-03-09 06   14.1    83.2     978    2    60          
2008-03-09 06   14.1    83.2     978    2    60          
2008-03-09 12   14.6    82.0     974    2    65          
2008-03-09 12   14.6    82.0     974    2    65          
2008-03-09 18   15.2    80.9     970    2    70          
2008-03-09 18   15.2    80.9     970    2    70          
2008-03-09 18   15.2    80.9     970    2    70          
2008-03-10 00   15.9    79.8     959    3    85          
2008-03-10 00   15.9    79.8     959    3    85          
2008-03-10 00   15.9    79.8     959    3    85          
2008-03-10 06   16.9    79.0     956    3    90          
2008-03-10 06   16.9    79.0     956    3    90          
2008-03-10 06   16.9    79.0     956    3    90          
2008-03-10 12   18.1    78.5     941    4   110          
2008-03-10 12   18.1    78.5     941    4   110          
2008-03-10 12   18.1    78.5     941    4   110          
2008-03-10 18   19.4    78.2     937    4   115          
2008-03-10 18   19.4    78.2     937    4   115          
2008-03-10 18   19.4    78.2     937    4   115          
2008-03-11 00   20.7    78.1     937    4   115          
2008-03-11 00   20.7    78.1     937    4   115          
2008-03-11 00   20.7    78.1     937    4   115          
2008-03-11 06   22.0    78.1     948    4   100          
2008-03-11 06   22.0    78.1     948    4   100          
2008-03-11 06   22.0    78.1     948    4   100          
2008-03-11 12   23.2    78.2     963    3    80          
2008-03-11 12   23.2    78.2     963    3    80          
2008-03-11 12   23.2    78.2     963    3    80          
2008-03-11 18   24.3    78.4     970    2    70          
2008-03-11 18   24.3    78.4     970    2    70          
2008-03-11 18   24.3    78.4     970    2    70          
2008-03-12 00   25.1    79.2     989    1    45          
2008-03-12 06   25.6    80.1    1000         30          
Winds are 1-min average.

Tropical cyclone tracks developed by Michael Bath using data from the Joint Typhoon Warning Centre Best Tracks and Google Maps.


[Australian Severe Weather index] [Copyright Notice] [Email Contacts] [Search This Site] [Privacy Policy]
Document: tropical_cyclone_kamba.htm Updated: 28 June 2017